createdAt,value
2017-11-09T00:01:33.227Z,99.63
2017-11-09T00:04:06.295Z,99.32
2017-11-09T00:06:33.822Z,99.07
2017-11-09T00:09:06.358Z,99.19
2017-11-09T00:11:33.882Z,99.30
2017-11-09T00:14:01.492Z,98.91
2017-11-09T00:16:28.988Z,99.30
2017-11-09T00:18:56.495Z,99.46
2017-11-09T00:21:23.998Z,99.58
2017-11-09T00:23:51.508Z,99.72
2017-11-09T00:26:19.016Z,99.94
2017-11-09T00:28:46.528Z,100.00
2017-11-09T00:31:14.050Z,100.00
2017-11-09T00:33:41.543Z,99.96
2017-11-09T00:36:09.042Z,99.88
2017-11-09T00:38:36.551Z,100.00
2017-11-09T00:41:04.067Z,100.00
2017-11-09T00:43:31.572Z,100.00
2017-11-09T00:45:59.070Z,100.00
2017-11-09T00:48:26.566Z,100.00
2017-11-09T00:50:54.080Z,100.00
2017-11-09T00:53:21.582Z,100.00
2017-11-09T00:55:49.081Z,100.00
2017-11-09T00:58:16.597Z,100.00
2017-11-09T01:00:44.102Z,100.00
2017-11-09T01:03:11.601Z,100.00
2017-11-09T01:05:39.092Z,100.00
2017-11-09T01:08:06.580Z,100.00
2017-11-09T01:10:34.494Z,100.00
2017-11-09T01:13:01.974Z,100.00
2017-11-09T01:15:29.482Z,100.00
2017-11-09T01:17:56.966Z,100.00
2017-11-09T01:20:24.446Z,100.00
2017-11-09T01:22:51.942Z,100.00
2017-11-09T01:25:19.421Z,100.00
2017-11-09T01:27:46.924Z,100.00
2017-11-09T01:30:14.432Z,100.00
2017-11-09T01:32:41.923Z,100.00
2017-11-09T01:35:09.436Z,100.00
2017-11-09T01:37:36.943Z,100.00
2017-11-09T01:40:04.448Z,100.00
2017-11-09T01:42:31.938Z,100.00
2017-11-09T01:44:59.447Z,100.00
2017-11-09T01:47:26.942Z,100.00
2017-11-09T01:49:54.451Z,100.00
2017-11-09T01:52:21.956Z,100.00
2017-11-09T01:54:49.467Z,100.00
2017-11-09T01:57:16.971Z,100.00
2017-11-09T01:59:44.487Z,100.00
2017-11-09T02:02:11.991Z,100.00
2017-11-09T02:04:39.528Z,100.00
2017-11-09T02:07:07.044Z,100.00
2017-11-09T02:09:34.574Z,100.00
2017-11-09T02:12:02.089Z,100.00
2017-11-09T02:14:29.604Z,100.00
2017-11-09T02:16:57.120Z,100.00
2017-11-09T02:19:24.619Z,100.00
2017-11-09T02:21:52.133Z,100.00
2017-11-09T02:24:19.636Z,100.00
2017-11-09T02:26:47.141Z,100.00
2017-11-09T02:29:14.660Z,100.00
2017-11-09T02:31:42.159Z,100.00
2017-11-09T02:34:09.671Z,100.00
2017-11-09T02:36:37.195Z,100.00
2017-11-09T02:39:04.703Z,100.00
2017-11-09T02:41:32.234Z,99.94
2017-11-09T02:43:59.754Z,100.00
2017-11-09T02:46:27.276Z,100.00
2017-11-09T02:48:54.779Z,100.00
2017-11-09T02:51:22.297Z,100.00
2017-11-09T02:53:49.814Z,100.00
2017-11-09T02:56:17.334Z,100.00
2017-11-09T02:58:44.854Z,100.00
2017-11-09T03:01:12.396Z,99.68
2017-11-09T03:03:39.914Z,98.66
2017-11-09T03:06:08.268Z,98.86
2017-11-09T03:08:35.808Z,99.74
2017-11-09T03:11:03.342Z,100.00
2017-11-09T03:13:30.856Z,100.00
2017-11-09T03:15:58.366Z,100.00
2017-11-09T03:18:25.875Z,100.00
2017-11-09T03:20:53.378Z,100.00
2017-11-09T03:23:20.867Z,100.00
2017-11-09T03:25:48.368Z,100.00
2017-11-09T03:28:15.896Z,100.00
2017-11-09T03:30:43.391Z,100.00
2017-11-09T03:33:10.908Z,100.00
2017-11-09T03:35:38.412Z,100.00
2017-11-09T03:38:05.926Z,100.00
2017-11-09T03:40:33.440Z,100.00
2017-11-09T03:43:00.963Z,100.00
2017-11-09T03:45:28.475Z,100.00
2017-11-09T03:47:56.002Z,100.00
2017-11-09T03:50:23.523Z,100.00
2017-11-09T03:52:51.041Z,99.87
2017-11-09T03:55:18.546Z,99.67
2017-11-09T03:57:46.089Z,100.00
2017-11-09T04:00:13.598Z,100.00
2017-11-09T04:02:41.122Z,100.00
2017-11-09T04:05:08.649Z,100.00
2017-11-09T04:07:36.164Z,100.00
2017-11-09T04:10:04.043Z,100.00
2017-11-09T04:12:31.559Z,100.00
2017-11-09T04:14:59.055Z,99.96
2017-11-09T04:17:26.582Z,99.80
2017-11-09T04:19:54.085Z,99.55
2017-11-09T04:22:21.592Z,99.42
2017-11-09T04:24:49.081Z,99.26
2017-11-09T04:27:16.611Z,99.31
2017-11-09T04:29:44.110Z,99.54
2017-11-09T04:32:11.620Z,99.75
2017-11-09T04:34:39.118Z,99.76
2017-11-09T04:37:06.615Z,100.00
2017-11-09T04:39:34.121Z,100.00
2017-11-09T04:42:01.624Z,100.00
2017-11-09T04:44:29.127Z,100.00
2017-11-09T04:46:56.659Z,100.00
2017-11-09T04:49:24.166Z,100.00
2017-11-09T04:51:51.693Z,100.00
2017-11-09T04:54:19.204Z,100.00
2017-11-09T04:56:46.703Z,99.84
2017-11-09T04:59:14.203Z,99.59
2017-11-09T05:01:41.704Z,99.87
2017-11-09T05:04:09.235Z,99.85
2017-11-09T05:06:36.736Z,99.78
2017-11-09T05:09:04.249Z,99.79
2017-11-09T05:11:31.804Z,99.67
2017-11-09T05:13:59.306Z,99.68
2017-11-09T05:16:26.795Z,99.77
2017-11-09T05:18:54.320Z,99.99
2017-11-09T05:21:21.832Z,100.00
2017-11-09T05:23:49.335Z,99.81
2017-11-09T05:26:16.850Z,99.56
2017-11-09T05:28:44.347Z,99.49
2017-11-09T05:31:11.839Z,99.35
2017-11-09T05:33:39.346Z,98.33
2017-11-09T05:36:06.845Z,98.06
2017-11-09T05:38:34.373Z,98.94
2017-11-09T05:41:01.866Z,99.52
2017-11-09T05:43:29.405Z,99.58
2017-11-09T05:45:57.015Z,99.54
2017-11-09T05:48:24.512Z,99.73
2017-11-09T05:50:52.021Z,99.98
2017-11-09T05:53:19.588Z,100.00
2017-11-09T05:55:47.193Z,99.45
2017-11-09T05:58:14.718Z,99.49
2017-11-09T06:00:42.261Z,98.95
2017-11-09T06:03:09.760Z,99.06
2017-11-09T06:05:37.266Z,99.65
2017-11-09T06:08:04.768Z,100.00
2017-11-09T06:10:32.267Z,100.00
2017-11-09T06:12:59.773Z,100.00
2017-11-09T06:15:27.305Z,100.00
2017-11-09T06:17:54.820Z,100.00
2017-11-09T06:20:22.319Z,100.00
2017-11-09T06:22:49.843Z,100.00
2017-11-09T06:25:17.505Z,99.93
2017-11-09T06:27:45.008Z,99.17
2017-11-09T06:30:12.522Z,98.36
2017-11-09T06:32:40.015Z,96.70
2017-11-09T06:35:07.547Z,97.00
2017-11-09T06:37:35.066Z,97.80
2017-11-09T06:40:02.578Z,98.50
2017-11-09T06:42:30.083Z,99.40
2017-11-09T06:44:57.593Z,99.81
2017-11-09T06:47:25.108Z,100.00
2017-11-09T06:49:52.633Z,100.00
2017-11-09T06:52:20.143Z,100.00
2017-11-09T06:54:47.640Z,100.00
2017-11-09T06:57:15.181Z,100.00
2017-11-09T06:59:42.692Z,100.00
2017-11-09T07:02:10.203Z,100.00
2017-11-09T07:04:37.711Z,100.00
2017-11-09T07:07:05.228Z,99.95
2017-11-09T07:09:32.727Z,99.67
2017-11-09T07:12:00.224Z,99.19
2017-11-09T07:14:27.722Z,98.17
2017-11-09T07:16:55.260Z,98.82
2017-11-09T07:19:22.780Z,99.42
2017-11-09T07:21:50.287Z,99.69
2017-11-09T07:24:17.791Z,99.61
2017-11-09T07:26:45.301Z,99.64
2017-11-09T07:29:12.798Z,99.61
2017-11-09T07:31:40.335Z,99.41
2017-11-09T07:34:07.837Z,99.39
2017-11-09T07:36:35.354Z,99.47
2017-11-09T07:39:02.987Z,99.59
2017-11-09T07:41:30.498Z,99.45
2017-11-09T07:43:57.999Z,98.98
2017-11-09T07:46:25.529Z,98.84
2017-11-09T07:48:53.055Z,99.15
2017-11-09T07:51:20.558Z,99.35
2017-11-09T07:53:48.052Z,99.26
2017-11-09T07:56:15.584Z,99.09
2017-11-09T07:58:43.081Z,98.71
2017-11-09T08:01:10.669Z,98.43
2017-11-09T08:03:38.189Z,96.18
2017-11-09T08:06:05.806Z,96.30
2017-11-09T08:08:33.372Z,96.24
2017-11-09T08:11:00.914Z,95.60
2017-11-09T08:13:28.431Z,95.56
2017-11-09T08:15:55.934Z,95.12
2017-11-09T08:18:23.448Z,95.90
2017-11-09T08:20:50.963Z,95.17
2017-11-09T08:23:18.488Z,96.12
2017-11-09T08:25:48.909Z,97.00
2017-11-09T08:28:18.734Z,96.89
2017-11-09T08:30:50.957Z,97.24
2017-11-09T08:33:20.118Z,96.01
2017-11-09T08:35:47.628Z,95.63
2017-11-09T08:38:15.122Z,95.86
2017-11-09T08:40:42.631Z,95.43
2017-11-09T08:43:10.138Z,95.68
2017-11-09T08:45:37.668Z,94.47
2017-11-09T08:48:05.197Z,94.38
2017-11-09T08:50:32.776Z,94.08
2017-11-09T08:53:00.315Z,95.12
2017-11-09T08:55:27.832Z,95.80
2017-11-09T08:57:55.356Z,96.02
2017-11-09T09:00:22.880Z,95.63
2017-11-09T09:02:50.415Z,95.30
2017-11-09T09:05:17.936Z,95.66
2017-11-09T09:07:45.443Z,95.96
2017-11-09T09:10:12.988Z,96.35
2017-11-09T09:12:40.507Z,96.47
2017-11-09T09:15:08.036Z,95.98
2017-11-09T09:17:35.558Z,95.50
2017-11-09T09:20:03.072Z,95.59
2017-11-09T09:22:50.464Z,95.47
2017-11-09T09:25:23.555Z,95.23
2017-11-09T09:30:56.116Z,94.08
2017-11-09T09:33:28.404Z,94.37
2017-11-09T09:36:00.029Z,95.40
2017-11-09T09:38:36.054Z,91.66
2017-11-09T09:41:03.555Z,91.94
2017-11-09T09:43:31.064Z,95.12
2017-11-09T09:45:58.578Z,95.72
2017-11-09T09:48:26.100Z,93.80
2017-11-09T09:50:53.644Z,93.69
2017-11-09T09:53:21.162Z,93.24
2017-11-09T09:55:48.677Z,93.55
2017-11-09T09:58:16.193Z,92.98
2017-11-09T10:00:43.714Z,92.25
2017-11-09T10:03:11.220Z,90.15
2017-11-09T10:05:38.717Z,90.70
2017-11-09T10:08:06.247Z,91.62
2017-11-09T10:10:33.739Z,90.57
2017-11-09T10:13:01.249Z,90.68
2017-11-09T10:15:28.756Z,91.00
2017-11-09T10:17:56.272Z,89.87
2017-11-09T10:20:23.768Z,90.36
2017-11-09T10:22:51.263Z,90.65
2017-11-09T10:25:18.748Z,89.94
2017-11-09T10:27:46.255Z,91.13
2017-11-09T10:30:13.831Z,92.62
2017-11-09T10:32:41.337Z,92.48
2017-11-09T10:35:08.848Z,92.58
2017-11-09T10:37:36.355Z,93.40
2017-11-09T10:40:03.879Z,93.30
2017-11-09T10:42:31.384Z,93.27
2017-11-09T10:44:58.875Z,93.18
2017-11-09T10:47:26.395Z,93.01
2017-11-09T10:49:53.894Z,93.83
2017-11-09T10:52:21.391Z,94.49
2017-11-09T10:54:48.899Z,94.14
2017-11-09T10:57:16.409Z,94.28
2017-11-09T10:59:43.935Z,95.25
2017-11-09T11:02:11.453Z,95.65
2017-11-09T11:04:38.965Z,96.54
2017-11-09T11:07:06.476Z,96.58
2017-11-09T11:09:33.971Z,96.25
2017-11-09T11:12:01.489Z,95.41
2017-11-09T11:14:29.004Z,96.29
2017-11-09T11:16:56.531Z,95.07
2017-11-09T11:19:24.050Z,94.13
2017-11-09T11:21:51.569Z,93.17
2017-11-09T11:24:19.062Z,90.79
2017-11-09T11:26:46.560Z,89.45
2017-11-09T11:29:14.059Z,86.85
2017-11-09T11:31:41.567Z,85.18
2017-11-09T11:34:09.103Z,86.27
2017-11-09T11:36:36.608Z,85.24
2017-11-09T11:39:04.168Z,87.73
2017-11-09T11:41:31.661Z,89.69
2017-11-09T11:43:59.188Z,88.93
2017-11-09T11:46:26.694Z,87.04
2017-11-09T11:48:54.195Z,86.89
2017-11-09T11:51:21.706Z,88.41
2017-11-09T11:53:49.234Z,87.84
2017-11-09T11:56:16.763Z,87.89
2017-11-09T11:58:44.267Z,88.66
2017-11-09T12:01:11.766Z,88.81
2017-11-09T12:03:39.296Z,86.99
2017-11-09T12:06:06.830Z,86.17
2017-11-09T12:08:34.338Z,85.31
2017-11-09T12:11:01.849Z,85.10
2017-11-09T12:13:29.365Z,84.22
2017-11-09T12:15:56.881Z,83.87
2017-11-09T12:18:24.373Z,84.66
2017-11-09T12:20:51.930Z,83.83
2017-11-09T12:23:19.445Z,84.39
2017-11-09T12:25:46.955Z,82.93
2017-11-09T12:28:14.457Z,82.89
2017-11-09T12:30:41.990Z,81.01
2017-11-09T12:33:09.515Z,83.38
2017-11-09T12:35:37.175Z,82.99
2017-11-09T12:38:04.717Z,82.59
2017-11-09T12:40:32.218Z,83.77
2017-11-09T12:42:59.752Z,84.26
2017-11-09T12:45:27.261Z,84.55
2017-11-09T12:47:54.762Z,84.95
2017-11-09T12:50:22.246Z,85.66
2017-11-09T12:52:49.763Z,83.83
2017-11-09T12:55:17.243Z,84.17
2017-11-09T12:57:44.739Z,84.42
2017-11-09T13:00:12.258Z,85.11
2017-11-09T13:02:39.779Z,84.64
2017-11-09T13:05:07.286Z,86.01
2017-11-09T13:07:34.794Z,84.45
2017-11-09T13:10:02.297Z,85.01
2017-11-09T13:12:29.827Z,84.57
2017-11-09T13:14:57.334Z,83.96
2017-11-09T13:17:24.854Z,83.89
2017-11-09T13:19:52.396Z,85.62
2017-11-09T13:22:19.910Z,85.51
2017-11-09T13:24:47.439Z,84.54
2017-11-09T13:27:14.960Z,85.33
2017-11-09T13:29:42.457Z,84.47
2017-11-09T13:32:09.957Z,83.83
2017-11-09T13:34:38.281Z,85.40
2017-11-09T13:37:05.798Z,85.32
2017-11-09T13:39:33.321Z,86.21
2017-11-09T13:42:00.853Z,86.77
2017-11-09T13:44:28.416Z,86.26
2017-11-09T13:46:55.906Z,85.80
2017-11-09T13:49:23.402Z,86.56
2017-11-09T13:51:50.916Z,86.85
2017-11-09T13:54:18.426Z,86.47
2017-11-09T13:56:45.960Z,86.49
2017-11-09T13:59:13.457Z,85.80
2017-11-09T14:01:40.973Z,87.18
2017-11-09T14:04:08.473Z,88.01
2017-11-09T14:06:35.970Z,86.09
2017-11-09T14:09:03.461Z,87.54
2017-11-09T14:11:30.993Z,87.54
2017-11-09T14:13:58.508Z,85.75
2017-11-09T14:16:26.013Z,86.83
2017-11-09T14:18:53.540Z,87.85
2017-11-09T14:21:21.056Z,86.45
2017-11-09T14:23:48.559Z,87.40
2017-11-09T14:26:16.080Z,87.91
2017-11-09T14:28:43.581Z,89.95
2017-11-09T14:31:11.072Z,92.19
2017-11-09T14:33:38.564Z,92.42
2017-11-09T14:36:06.090Z,93.21
2017-11-09T14:38:37.594Z,93.57
2017-11-09T14:41:05.133Z,93.43
2017-11-09T14:43:32.656Z,92.84
2017-11-09T14:46:00.207Z,93.59
2017-11-09T14:48:27.724Z,92.91
2017-11-09T14:50:55.238Z,94.13
2017-11-09T14:53:22.747Z,94.57
2017-11-09T14:55:50.281Z,94.46
2017-11-09T14:58:17.800Z,94.86
2017-11-09T15:00:45.331Z,95.09
2017-11-09T15:03:12.863Z,95.39
2017-11-09T15:05:40.414Z,94.75
2017-11-09T15:08:07.961Z,94.47
2017-11-09T15:10:35.483Z,95.03
2017-11-09T15:13:03.004Z,94.69
2017-11-09T15:15:30.531Z,94.36
2017-11-09T15:17:58.064Z,93.65
2017-11-09T15:20:25.564Z,92.70
2017-11-09T15:22:53.093Z,92.61
2017-11-09T15:25:20.603Z,93.18
2017-11-09T15:27:48.119Z,94.20
2017-11-09T15:30:15.650Z,95.35
2017-11-09T15:32:43.175Z,94.34
2017-11-09T15:35:10.731Z,94.97
2017-11-09T15:37:38.236Z,95.60
2017-11-09T15:40:05.802Z,96.54
2017-11-09T15:42:33.319Z,97.57
2017-11-09T15:45:00.841Z,97.35
2017-11-09T15:47:28.327Z,96.76
2017-11-09T15:49:55.856Z,97.12
2017-11-09T15:52:23.381Z,97.06
2017-11-09T15:54:50.909Z,97.39
2017-11-09T15:57:18.441Z,97.62
2017-11-09T15:59:45.963Z,97.02
2017-11-09T16:02:13.529Z,96.45
2017-11-09T16:04:41.040Z,95.90
2017-11-09T16:07:14.070Z,96.76
2017-11-09T16:09:41.574Z,97.41
2017-11-09T16:12:09.105Z,96.92
2017-11-09T16:14:36.668Z,96.34
2017-11-09T16:17:04.197Z,96.85
2017-11-09T16:19:31.714Z,96.69
2017-11-09T16:21:59.273Z,96.77
2017-11-09T16:24:26.808Z,97.53
2017-11-09T16:26:57.192Z,97.77
2017-11-09T16:29:24.734Z,98.05
2017-11-09T16:31:52.243Z,98.18
2017-11-09T16:34:19.764Z,98.22
2017-11-09T16:36:47.269Z,97.64
2017-11-09T16:39:14.767Z,97.94
2017-11-09T16:41:42.289Z,97.96
2017-11-09T16:44:09.803Z,98.12
2017-11-09T16:46:37.434Z,98.54
2017-11-09T16:49:04.969Z,98.76
2017-11-09T16:51:32.488Z,98.86
2017-11-09T16:54:00.798Z,98.82
2017-11-09T16:56:28.322Z,98.70
2017-11-09T16:58:55.823Z,98.58
2017-11-09T17:01:23.347Z,98.49
2017-11-09T17:03:50.871Z,98.69
2017-11-09T17:06:18.411Z,99.00
2017-11-09T17:08:45.921Z,99.36
2017-11-09T17:11:13.429Z,99.24
2017-11-09T17:13:40.946Z,99.47
2017-11-09T17:16:08.476Z,99.68
2017-11-09T17:18:35.976Z,99.84
2017-11-09T17:21:03.499Z,100.00
2017-11-09T17:23:31.042Z,100.00
2017-11-09T17:25:58.613Z,100.00
2017-11-09T17:28:26.131Z,100.00
2017-11-09T17:30:53.675Z,100.00
2017-11-09T17:33:21.197Z,100.00
2017-11-09T17:35:48.732Z,100.00
2017-11-09T17:38:16.263Z,100.00
2017-11-09T17:40:43.775Z,100.00
2017-11-09T17:43:11.473Z,100.00
2017-11-09T17:45:38.985Z,100.00
2017-11-09T17:48:06.677Z,100.00
2017-11-09T17:50:34.188Z,100.00
2017-11-09T17:53:01.920Z,100.00
2017-11-09T17:55:29.905Z,100.00
2017-11-09T17:57:57.638Z,100.00
2017-11-09T18:00:25.230Z,100.00
2017-11-09T18:02:52.744Z,100.00
2017-11-09T18:05:20.264Z,100.00
2017-11-09T18:07:48.279Z,100.00
2017-11-09T18:10:15.838Z,100.00
2017-11-09T18:12:43.690Z,100.00
2017-11-09T18:15:11.648Z,100.00
2017-11-09T18:17:39.180Z,100.00
2017-11-09T18:20:06.853Z,100.00
2017-11-09T18:22:37.312Z,100.00
2017-11-09T18:25:05.177Z,100.00
2017-11-09T18:27:32.940Z,100.00
2017-11-09T18:30:00.678Z,100.00
2017-11-09T18:32:28.233Z,100.00
2017-11-09T18:34:55.760Z,100.00
2017-11-09T18:37:23.559Z,100.00
2017-11-09T18:39:51.331Z,100.00
2017-11-09T18:42:19.200Z,100.00
2017-11-09T18:44:47.240Z,100.00
2017-11-09T18:47:14.895Z,100.00
2017-11-09T18:49:42.447Z,100.00
2017-11-09T18:52:10.003Z,100.00
2017-11-09T18:54:37.538Z,100.00
2017-11-09T18:57:05.291Z,100.00
2017-11-09T18:59:32.800Z,100.00
2017-11-09T19:02:00.319Z,99.94
2017-11-09T19:04:28.138Z,99.97
2017-11-09T19:06:55.818Z,100.00
2017-11-09T19:09:30.222Z,100.00
2017-11-09T19:11:57.779Z,100.00
2017-11-09T19:14:25.557Z,99.64
2017-11-09T19:16:53.130Z,99.80
2017-11-09T19:19:20.657Z,99.74
2017-11-09T19:21:48.472Z,100.00
2017-11-09T19:24:15.990Z,100.00
2017-11-09T19:26:43.492Z,99.79
2017-11-09T19:29:11.327Z,99.65
2017-11-09T19:31:39.296Z,99.29
2017-11-09T19:34:06.822Z,99.54
2017-11-09T19:36:34.823Z,99.58
2017-11-09T19:39:02.335Z,99.77
2017-11-09T19:41:29.853Z,99.89
2017-11-09T19:43:57.368Z,100.00
2017-11-09T19:46:24.881Z,100.00
2017-11-09T19:48:52.795Z,100.00
2017-11-09T19:51:20.700Z,100.00
2017-11-09T19:53:48.227Z,100.00
2017-11-09T19:56:16.224Z,100.00
2017-11-09T19:58:45.081Z,100.00
2017-11-09T20:01:13.690Z,100.00
2017-11-09T20:03:41.267Z,100.00
2017-11-09T20:06:09.651Z,100.00
2017-11-09T20:08:37.591Z,100.00
2017-11-09T20:11:05.338Z,100.00
2017-11-09T20:13:32.940Z,100.00
2017-11-09T20:16:00.921Z,100.00
2017-11-09T20:18:29.664Z,100.00
2017-11-09T20:20:57.468Z,100.00
2017-11-09T20:23:26.609Z,100.00
2017-11-09T20:25:54.506Z,100.00
2017-11-09T20:28:23.398Z,100.00
2017-11-09T20:30:51.749Z,100.00
2017-11-09T20:33:19.270Z,100.00
2017-11-09T20:35:47.818Z,100.00
2017-11-09T20:38:17.916Z,100.00
2017-11-09T20:40:45.496Z,100.00
2017-11-09T20:43:15.613Z,100.00
2017-11-09T20:45:43.677Z,100.00
2017-11-09T20:48:11.216Z,100.00
2017-11-09T20:50:38.759Z,100.00
2017-11-09T20:53:06.283Z,100.00
2017-11-09T20:55:34.232Z,100.00
2017-11-09T20:58:01.758Z,100.00
2017-11-09T21:00:29.957Z,100.00
2017-11-09T21:02:57.502Z,100.00
2017-11-09T21:05:26.222Z,100.00
2017-11-09T21:07:53.849Z,100.00
2017-11-09T21:10:21.510Z,100.00
2017-11-09T21:12:49.471Z,100.00
2017-11-09T21:15:16.992Z,100.00
2017-11-09T21:17:44.529Z,100.00
2017-11-09T21:20:12.348Z,100.00
2017-11-09T21:22:40.221Z,100.00
2017-11-09T21:25:07.746Z,100.00
2017-11-09T21:27:35.596Z,100.00
2017-11-09T21:30:03.147Z,100.00
2017-11-09T21:32:31.015Z,100.00
2017-11-09T21:34:58.853Z,100.00
2017-11-09T21:37:26.384Z,100.00
2017-11-09T21:39:53.955Z,100.00
2017-11-09T21:42:21.700Z,99.86
2017-11-09T21:44:49.213Z,100.00
2017-11-09T21:47:16.755Z,100.00
2017-11-09T21:49:44.289Z,100.00
2017-11-09T21:52:12.030Z,100.00
2017-11-09T21:54:39.535Z,100.00
2017-11-09T21:57:07.179Z,100.00
2017-11-09T21:59:34.699Z,100.00
2017-11-09T22:02:02.251Z,100.00
2017-11-09T22:04:29.811Z,100.00
2017-11-09T22:06:57.734Z,100.00
2017-11-09T22:09:25.518Z,100.00
2017-11-09T22:11:53.062Z,99.98
2017-11-09T22:14:20.563Z,99.79
2017-11-09T22:16:48.071Z,99.77
2017-11-09T22:19:15.567Z,99.69
2017-11-09T22:21:43.075Z,100.00
2017-11-09T22:24:10.584Z,100.00
2017-11-09T22:26:38.130Z,100.00
2017-11-09T22:29:05.698Z,100.00
2017-11-09T22:31:33.219Z,100.00
2017-11-09T22:34:00.730Z,100.00
2017-11-09T22:36:28.275Z,100.00
2017-11-09T22:38:55.886Z,100.00
2017-11-09T22:41:23.398Z,100.00
2017-11-09T22:43:50.979Z,100.00
2017-11-09T22:46:18.520Z,100.00
2017-11-09T22:48:46.034Z,100.00
2017-11-09T22:51:13.544Z,100.00
2017-11-09T22:53:41.060Z,100.00
2017-11-09T22:56:08.592Z,100.00
2017-11-09T22:58:36.090Z,100.00
2017-11-09T23:01:03.650Z,100.00
2017-11-09T23:03:31.160Z,100.00
2017-11-09T23:05:58.723Z,100.00
2017-11-09T23:08:26.239Z,100.00
2017-11-09T23:10:53.747Z,100.00
2017-11-09T23:13:21.623Z,100.00
2017-11-09T23:15:49.141Z,100.00
2017-11-09T23:18:16.690Z,100.00
2017-11-09T23:20:44.205Z,100.00
2017-11-09T23:23:11.710Z,100.00
2017-11-09T23:25:39.240Z,100.00
2017-11-09T23:28:06.750Z,100.00
2017-11-09T23:30:34.255Z,100.00
2017-11-09T23:33:01.770Z,100.00
2017-11-09T23:35:29.295Z,100.00
2017-11-09T23:37:56.828Z,100.00
2017-11-09T23:40:24.336Z,100.00
2017-11-09T23:42:51.848Z,100.00
2017-11-09T23:45:19.370Z,100.00
2017-11-09T23:47:46.916Z,100.00
2017-11-09T23:50:14.447Z,100.00
2017-11-09T23:52:41.955Z,100.00
2017-11-09T23:55:09.492Z,100.00
2017-11-09T23:57:37.013Z,100.00
